sensor_id;sensor_type;location;lat;lon;timestamp;P1;P2;P0
49064;PMS5003;34876;51.464;-0.150;2023-07-31T00:03:23;6;5;
49064;PMS5003;34876;51.464;-0.150;2023-07-31T00:05:52;5;5;
49064;PMS5003;34876;51.464;-0.150;2023-07-31T00:08:22;6;5;
49064;PMS5003;34876;51.464;-0.150;2023-07-31T00:10:51;5;5;
49064;PMS5003;34876;51.464;-0.150;2023-07-31T00:13:21;6;6;
49064;PMS5003;34876;51.464;-0.150;2023-07-31T00:15:50;9;6;
49064;PMS5003;34876;51.464;-0.150;2023-07-31T00:18:20;6;6;
49064;PMS5003;34876;51.464;-0.150;2023-07-31T00:20:48;7;5;
49064;PMS5003;34876;51.464;-0.150;2023-07-31T00:23:18;5;4;
49064;PMS5003;34876;51.464;-0.150;2023-07-31T00:25:47;9;8;
49064;PMS5003;34876;51.464;-0.150;2023-07-31T00:28:17;4;4;
49064;PMS5003;34876;51.464;-0.150;2023-07-31T00:30:46;4;4;
49064;PMS5003;34876;51.464;-0.150;2023-07-31T00:33:15;4;4;
49064;PMS5003;34876;51.464;-0.150;2023-07-31T00:35:45;7;7;
49064;PMS5003;34876;51.464;-0.150;2023-07-31T00:38:14;6;5;
49064;PMS5003;34876;51.464;-0.150;2023-07-31T00:40:43;5;5;
49064;PMS5003;34876;51.464;-0.150;2023-07-31T00:43:12;6;5;
49064;PMS5003;34876;51.464;-0.150;2023-07-31T00:45:41;6;5;
49064;PMS5003;34876;51.464;-0.150;2023-07-31T00:48:11;6;6;
49064;PMS5003;34876;51.464;-0.150;2023-07-31T00:50:40;5;5;
49064;PMS5003;34876;51.464;-0.150;2023-07-31T00:53:10;5;5;
49064;PMS5003;34876;51.464;-0.150;2023-07-31T00:55:40;6;5;
49064;PMS5003;34876;51.464;-0.150;2023-07-31T00:58:10;7;5;
49064;PMS5003;34876;51.464;-0.150;2023-07-31T01:00:40;6;6;
49064;PMS5003;34876;51.464;-0.150;2023-07-31T01:03:09;5;5;
49064;PMS5003;34876;51.464;-0.150;2023-07-31T01:05:42;6;6;
49064;PMS5003;34876;51.464;-0.150;2023-07-31T01:08:20;6;6;
49064;PMS5003;34876;51.464;-0.150;2023-07-31T01:10:59;6;5;
49064;PMS5003;34876;51.464;-0.150;2023-07-31T01:13:36;4;4;
49064;PMS5003;34876;51.464;-0.150;2023-07-31T01:16:04;6;6;
49064;PMS5003;34876;51.464;-0.150;2023-07-31T01:18:35;4;4;
49064;PMS5003;34876;51.464;-0.150;2023-07-31T01:21:06;4;4;
49064;PMS5003;34876;51.464;-0.150;2023-07-31T01:23:56;5;5;
49064;PMS5003;34876;51.464;-0.150;2023-07-31T01:26:39;4;4;
49064;PMS5003;34876;51.464;-0.150;2023-07-31T01:29:15;6;6;
49064;PMS5003;34876;51.464;-0.150;2023-07-31T01:31:51;5;5;
49064;PMS5003;34876;51.464;-0.150;2023-07-31T01:34:24;4;3;
49064;PMS5003;34876;51.464;-0.150;2023-07-31T01:36:55;7;6;
49064;PMS5003;34876;51.464;-0.150;2023-07-31T01:39:25;6;6;
49064;PMS5003;34876;51.464;-0.150;2023-07-31T01:41:55;6;5;
49064;PMS5003;34876;51.464;-0.150;2023-07-31T01:44:24;5;2;
49064;PMS5003;34876;51.464;-0.150;2023-07-31T01:46:53;6;5;
49064;PMS5003;34876;51.464;-0.150;2023-07-31T01:49:22;6;6;
49064;PMS5003;34876;51.464;-0.150;2023-07-31T01:51:51;2;2;
49064;PMS5003;34876;51.464;-0.150;2023-07-31T01:54:21;7;5;
49064;PMS5003;34876;51.464;-0.150;2023-07-31T01:56:51;5;3;
49064;PMS5003;34876;51.464;-0.150;2023-07-31T01:59:20;6;6;
49064;PMS5003;34876;51.464;-0.150;2023-07-31T02:01:49;6;5;
49064;PMS5003;34876;51.464;-0.150;2023-07-31T02:04:20;4;3;
49064;PMS5003;34876;51.464;-0.150;2023-07-31T02:06:50;5;4;
49064;PMS5003;34876;51.464;-0.150;2023-07-31T02:09:21;4;4;
49064;PMS5003;34876;51.464;-0.150;2023-07-31T02:11:49;4;4;
49064;PMS5003;34876;51.464;-0.150;2023-07-31T02:14:19;3;3;
49064;PMS5003;34876;51.464;-0.150;2023-07-31T02:16:48;3;3;
49064;PMS5003;34876;51.464;-0.150;2023-07-31T02:19:18;3;3;
49064;PMS5003;34876;51.464;-0.150;2023-07-31T02:21:47;4;4;
49064;PMS5003;34876;51.464;-0.150;2023-07-31T02:24:16;5;4;
49064;PMS5003;34876;51.464;-0.150;2023-07-31T02:26:44;3;3;
49064;PMS5003;34876;51.464;-0.150;2023-07-31T02:29:14;2;2;
49064;PMS5003;34876;51.464;-0.150;2023-07-31T02:31:44;3;3;
49064;PMS5003;34876;51.464;-0.150;2023-07-31T02:34:18;3;3;
49064;PMS5003;34876;51.464;-0.150;2023-07-31T02:37:00;3;3;
49064;PMS5003;34876;51.464;-0.150;2023-07-31T02:39:30;4;2;
49064;PMS5003;34876;51.464;-0.150;2023-07-31T02:42:00;3;3;
49064;PMS5003;34876;51.464;-0.150;2023-07-31T02:44:30;3;3;
49064;PMS5003;34876;51.464;-0.150;2023-07-31T02:47:00;3;3;
49064;PMS5003;34876;51.464;-0.150;2023-07-31T02:49:34;2;2;
49064;PMS5003;34876;51.464;-0.150;2023-07-31T02:52:03;4;4;
49064;PMS5003;34876;51.464;-0.150;2023-07-31T02:54:33;4;4;
49064;PMS5003;34876;51.464;-0.150;2023-07-31T02:57:02;4;2;
49064;PMS5003;34876;51.464;-0.150;2023-07-31T02:59:32;1;1;
49064;PMS5003;34876;51.464;-0.150;2023-07-31T03:02:01;3;3;
49064;PMS5003;34876;51.464;-0.150;2023-07-31T03:04:31;2;2;
49064;PMS5003;34876;51.464;-0.150;2023-07-31T03:07:00;5;4;
49064;PMS5003;34876;51.464;-0.150;2023-07-31T03:09:34;3;2;
49064;PMS5003;34876;51.464;-0.150;2023-07-31T03:12:09;2;2;
49064;PMS5003;34876;51.464;-0.150;2023-07-31T03:14:38;2;2;
49064;PMS5003;34876;51.464;-0.150;2023-07-31T03:17:08;4;3;
49064;PMS5003;34876;51.464;-0.150;2023-07-31T03:19:38;4;2;
49064;PMS5003;34876;51.464;-0.150;2023-07-31T03:22:07;3;3;
49064;PMS5003;34876;51.464;-0.150;2023-07-31T03:24:36;2;1;
49064;PMS5003;34876;51.464;-0.150;2023-07-31T03:27:06;1;1;
49064;PMS5003;34876;51.464;-0.150;2023-07-31T03:29:35;3;3;
49064;PMS5003;34876;51.464;-0.150;2023-07-31T03:32:07;3;3;
49064;PMS5003;34876;51.464;-0.150;2023-07-31T03:34:38;1;1;
49064;PMS5003;34876;51.464;-0.150;2023-07-31T03:37:08;1;1;
49064;PMS5003;34876;51.464;-0.150;2023-07-31T03:39:37;2;2;
49064;PMS5003;34876;51.464;-0.150;2023-07-31T03:42:07;1;1;
49064;PMS5003;34876;51.464;-0.150;2023-07-31T03:44:35;2;2;
49064;PMS5003;34876;51.464;-0.150;2023-07-31T03:47:05;3;3;
49064;PMS5003;34876;51.464;-0.150;2023-07-31T03:49:34;2;2;
49064;PMS5003;34876;51.464;-0.150;2023-07-31T03:52:06;2;2;
49064;PMS5003;34876;51.464;-0.150;2023-07-31T03:54:36;3;3;
49064;PMS5003;34876;51.464;-0.150;2023-07-31T03:57:06;2;2;
49064;PMS5003;34876;51.464;-0.150;2023-07-31T03:59:36;2;2;
49064;PMS5003;34876;51.464;-0.150;2023-07-31T04:02:06;2;1;
49064;PMS5003;34876;51.464;-0.150;2023-07-31T04:04:35;1;1;
49064;PMS5003;34876;51.464;-0.150;2023-07-31T04:07:06;3;1;
49064;PMS5003;34876;51.464;-0.150;2023-07-31T04:09:35;1;1;
49064;PMS5003;34876;51.464;-0.150;2023-07-31T04:12:04;2;1;
49064;PMS5003;34876;51.464;-0.150;2023-07-31T04:14:33;2;2;
49064;PMS5003;34876;51.464;-0.150;2023-07-31T04:17:09;3;2;
49064;PMS5003;34876;51.464;-0.150;2023-07-31T04:19:38;4;4;
49064;PMS5003;34876;51.464;-0.150;2023-07-31T04:22:06;1;1;
49064;PMS5003;34876;51.464;-0.150;2023-07-31T04:24:36;4;4;
49064;PMS5003;34876;51.464;-0.150;2023-07-31T04:27:05;4;4;
49064;PMS5003;34876;51.464;-0.150;2023-07-31T04:29:36;2;2;
49064;PMS5003;34876;51.464;-0.150;2023-07-31T04:32:10;3;2;
49064;PMS5003;34876;51.464;-0.150;2023-07-31T04:34:41;1;1;
49064;PMS5003;34876;51.464;-0.150;2023-07-31T04:37:12;0;0;
49064;PMS5003;34876;51.464;-0.150;2023-07-31T04:39:41;3;3;
49064;PMS5003;34876;51.464;-0.150;2023-07-31T04:42:09;3;3;
49064;PMS5003;34876;51.464;-0.150;2023-07-31T04:44:38;3;3;
49064;PMS5003;34876;51.464;-0.150;2023-07-31T04:47:06;4;3;
49064;PMS5003;34876;51.464;-0.150;2023-07-31T04:49:36;2;2;
49064;PMS5003;34876;51.464;-0.150;2023-07-31T04:52:07;3;3;
49064;PMS5003;34876;51.464;-0.150;2023-07-31T04:54:36;2;1;
49064;PMS5003;34876;51.464;-0.150;2023-07-31T04:57:09;4;2;
49064;PMS5003;34876;51.464;-0.150;2023-07-31T04:59:43;5;3;
49064;PMS5003;34876;51.464;-0.150;2023-07-31T05:02:12;2;2;
49064;PMS5003;34876;51.464;-0.150;2023-07-31T05:04:42;6;4;
49064;PMS5003;34876;51.464;-0.150;2023-07-31T05:07:19;1;1;
49064;PMS5003;34876;51.464;-0.150;2023-07-31T05:09:48;3;3;
49064;PMS5003;34876;51.464;-0.150;2023-07-31T05:12:18;2;2;
49064;PMS5003;34876;51.464;-0.150;2023-07-31T05:14:48;2;2;
49064;PMS5003;34876;51.464;-0.150;2023-07-31T05:17:16;4;2;
49064;PMS5003;34876;51.464;-0.150;2023-07-31T05:19:46;2;2;
49064;PMS5003;34876;51.464;-0.150;2023-07-31T05:22:16;2;2;
49064;PMS5003;34876;51.464;-0.150;2023-07-31T05:24:47;3;3;
49064;PMS5003;34876;51.464;-0.150;2023-07-31T05:27:17;2;2;
49064;PMS5003;34876;51.464;-0.150;2023-07-31T05:29:46;6;3;
49064;PMS5003;34876;51.464;-0.150;2023-07-31T05:32:16;1;1;
49064;PMS5003;34876;51.464;-0.150;2023-07-31T05:34:44;2;2;
49064;PMS5003;34876;51.464;-0.150;2023-07-31T05:37:18;2;2;
49064;PMS5003;34876;51.464;-0.150;2023-07-31T05:39:48;3;3;
49064;PMS5003;34876;51.464;-0.150;2023-07-31T05:42:18;1;1;
49064;PMS5003;34876;51.464;-0.150;2023-07-31T05:44:47;2;2;
49064;PMS5003;34876;51.464;-0.150;2023-07-31T05:47:17;1;1;
49064;PMS5003;34876;51.464;-0.150;2023-07-31T05:49:47;2;1;
49064;PMS5003;34876;51.464;-0.150;2023-07-31T05:52:19;1;1;
49064;PMS5003;34876;51.464;-0.150;2023-07-31T05:54:49;1;1;
49064;PMS5003;34876;51.464;-0.150;2023-07-31T05:57:18;3;3;
49064;PMS5003;34876;51.464;-0.150;2023-07-31T05:59:48;0;0;
49064;PMS5003;34876;51.464;-0.150;2023-07-31T06:02:22;3;3;
49064;PMS5003;34876;51.464;-0.150;2023-07-31T06:04:51;3;3;
49064;PMS5003;34876;51.464;-0.150;2023-07-31T06:07:20;2;2;
49064;PMS5003;34876;51.464;-0.150;2023-07-31T06:09:50;2;2;
49064;PMS5003;34876;51.464;-0.150;2023-07-31T06:12:20;0;0;
49064;PMS5003;34876;51.464;-0.150;2023-07-31T06:14:49;2;1;
49064;PMS5003;34876;51.464;-0.150;2023-07-31T06:17:19;2;2;
49064;PMS5003;34876;51.464;-0.150;2023-07-31T06:19:49;2;1;
49064;PMS5003;34876;51.464;-0.150;2023-07-31T06:22:19;3;2;
49064;PMS5003;34876;51.464;-0.150;2023-07-31T06:24:48;1;1;
49064;PMS5003;34876;51.464;-0.150;2023-07-31T06:27:18;1;1;
49064;PMS5003;34876;51.464;-0.150;2023-07-31T06:29:47;0;0;
49064;PMS5003;34876;51.464;-0.150;2023-07-31T06:32:18;1;1;
49064;PMS5003;34876;51.464;-0.150;2023-07-31T06:34:47;1;1;
49064;PMS5003;34876;51.464;-0.150;2023-07-31T06:37:16;1;1;
49064;PMS5003;34876;51.464;-0.150;2023-07-31T06:39:46;2;2;
49064;PMS5003;34876;51.464;-0.150;2023-07-31T06:42:15;2;2;
49064;PMS5003;34876;51.464;-0.150;2023-07-31T06:44:44;1;1;
49064;PMS5003;34876;51.464;-0.150;2023-07-31T06:47:13;1;0;
49064;PMS5003;34876;51.464;-0.150;2023-07-31T06:49:42;1;1;
49064;PMS5003;34876;51.464;-0.150;2023-07-31T06:52:11;2;2;
49064;PMS5003;34876;51.464;-0.150;2023-07-31T06:54:40;1;1;
49064;PMS5003;34876;51.464;-0.150;2023-07-31T06:57:10;4;2;
49064;PMS5003;34876;51.464;-0.150;2023-07-31T06:59:40;1;1;
49064;PMS5003;34876;51.464;-0.150;2023-07-31T07:02:10;1;1;
49064;PMS5003;34876;51.464;-0.150;2023-07-31T07:04:39;2;1;
49064;PMS5003;34876;51.464;-0.150;2023-07-31T07:07:18;3;2;
49064;PMS5003;34876;51.464;-0.150;2023-07-31T07:09:46;2;2;
49064;PMS5003;34876;51.464;-0.150;2023-07-31T07:12:17;1;1;
49064;PMS5003;34876;51.464;-0.150;2023-07-31T07:14:46;1;1;
49064;PMS5003;34876;51.464;-0.150;2023-07-31T07:17:16;0;0;
49064;PMS5003;34876;51.464;-0.150;2023-07-31T07:19:56;2;2;
49064;PMS5003;34876;51.464;-0.150;2023-07-31T07:22:26;3;3;
49064;PMS5003;34876;51.464;-0.150;2023-07-31T07:24:55;1;1;
49064;PMS5003;34876;51.464;-0.150;2023-07-31T07:27:30;3;2;
49064;PMS5003;34876;51.464;-0.150;2023-07-31T07:30:00;3;2;
49064;PMS5003;34876;51.464;-0.150;2023-07-31T07:32:30;2;2;
49064;PMS5003;34876;51.464;-0.150;2023-07-31T07:35:02;0;0;
49064;PMS5003;34876;51.464;-0.150;2023-07-31T07:37:31;2;2;
49064;PMS5003;34876;51.464;-0.150;2023-07-31T07:40:00;1;1;
49064;PMS5003;34876;51.464;-0.150;2023-07-31T07:42:28;1;1;
49064;PMS5003;34876;51.464;-0.150;2023-07-31T07:44:59;1;1;
49064;PMS5003;34876;51.464;-0.150;2023-07-31T07:47:28;2;2;
49064;PMS5003;34876;51.464;-0.150;2023-07-31T07:49:57;1;1;
49064;PMS5003;34876;51.464;-0.150;2023-07-31T07:52:26;0;0;
49064;PMS5003;34876;51.464;-0.150;2023-07-31T07:54:57;1;1;
49064;PMS5003;34876;51.464;-0.150;2023-07-31T07:57:27;1;1;
49064;PMS5003;34876;51.464;-0.150;2023-07-31T07:59:56;1;1;
49064;PMS5003;34876;51.464;-0.150;2023-07-31T08:02:26;1;1;
49064;PMS5003;34876;51.464;-0.150;2023-07-31T08:05:01;2;2;
49064;PMS5003;34876;51.464;-0.150;2023-07-31T08:07:37;1;1;
49064;PMS5003;34876;51.464;-0.150;2023-07-31T08:10:08;2;2;
49064;PMS5003;34876;51.464;-0.150;2023-07-31T08:12:37;1;1;
49064;PMS5003;34876;51.464;-0.150;2023-07-31T08:15:07;0;0;
49064;PMS5003;34876;51.464;-0.150;2023-07-31T08:17:37;1;1;
49064;PMS5003;34876;51.464;-0.150;2023-07-31T08:20:06;2;1;
49064;PMS5003;34876;51.464;-0.150;2023-07-31T08:22:36;3;3;
49064;PMS5003;34876;51.464;-0.150;2023-07-31T08:25:06;1;1;
49064;PMS5003;34876;51.464;-0.150;2023-07-31T08:27:36;1;1;
49064;PMS5003;34876;51.464;-0.150;2023-07-31T08:30:05;2;2;
49064;PMS5003;34876;51.464;-0.150;2023-07-31T08:32:36;3;1;
49064;PMS5003;34876;51.464;-0.150;2023-07-31T08:35:06;0;0;
49064;PMS5003;34876;51.464;-0.150;2023-07-31T08:37:37;2;1;
49064;PMS5003;34876;51.464;-0.150;2023-07-31T08:40:12;1;1;
49064;PMS5003;34876;51.464;-0.150;2023-07-31T08:42:43;2;2;
49064;PMS5003;34876;51.464;-0.150;2023-07-31T08:45:14;1;1;
49064;PMS5003;34876;51.464;-0.150;2023-07-31T08:47:47;1;1;
49064;PMS5003;34876;51.464;-0.150;2023-07-31T08:50:24;1;1;
49064;PMS5003;34876;51.464;-0.150;2023-07-31T08:52:55;2;2;
49064;PMS5003;34876;51.464;-0.150;2023-07-31T08:55:26;0;0;
49064;PMS5003;34876;51.464;-0.150;2023-07-31T08:57:57;1;1;
49064;PMS5003;34876;51.464;-0.150;2023-07-31T09:00:27;0;0;
49064;PMS5003;34876;51.464;-0.150;2023-07-31T09:02:59;1;1;
49064;PMS5003;34876;51.464;-0.150;2023-07-31T09:05:32;2;2;
49064;PMS5003;34876;51.464;-0.150;2023-07-31T09:08:01;3;2;
49064;PMS5003;34876;51.464;-0.150;2023-07-31T09:10:32;1;1;
49064;PMS5003;34876;51.464;-0.150;2023-07-31T09:13:01;2;2;
49064;PMS5003;34876;51.464;-0.150;2023-07-31T09:15:32;2;2;
49064;PMS5003;34876;51.464;-0.150;2023-07-31T09:18:03;1;1;
49064;PMS5003;34876;51.464;-0.150;2023-07-31T09:20:34;0;0;
49064;PMS5003;34876;51.464;-0.150;2023-07-31T09:23:07;2;2;
49064;PMS5003;34876;51.464;-0.150;2023-07-31T09:25:39;3;2;
49064;PMS5003;34876;51.464;-0.150;2023-07-31T09:28:14;1;1;
49064;PMS5003;34876;51.464;-0.150;2023-07-31T09:30:46;2;2;
49064;PMS5003;34876;51.464;-0.150;2023-07-31T09:33:17;1;1;
49064;PMS5003;34876;51.464;-0.150;2023-07-31T09:35:48;0;0;
49064;PMS5003;34876;51.464;-0.150;2023-07-31T09:38:17;1;1;
49064;PMS5003;34876;51.464;-0.150;2023-07-31T09:40:48;2;2;
49064;PMS5003;34876;51.464;-0.150;2023-07-31T09:43:19;1;1;
49064;PMS5003;34876;51.464;-0.150;2023-07-31T09:45:54;2;1;
49064;PMS5003;34876;51.464;-0.150;2023-07-31T09:48:25;0;0;
49064;PMS5003;34876;51.464;-0.150;2023-07-31T09:50:54;0;0;
49064;PMS5003;34876;51.464;-0.150;2023-07-31T09:53:28;1;1;
49064;PMS5003;34876;51.464;-0.150;2023-07-31T09:55:58;1;1;
49064;PMS5003;34876;51.464;-0.150;2023-07-31T09:58:29;2;2;
49064;PMS5003;34876;51.464;-0.150;2023-07-31T10:01:00;1;1;
49064;PMS5003;34876;51.464;-0.150;2023-07-31T10:03:30;0;0;
49064;PMS5003;34876;51.464;-0.150;2023-07-31T10:06:03;1;1;
49064;PMS5003;34876;51.464;-0.150;2023-07-31T10:08:33;2;2;
49064;PMS5003;34876;51.464;-0.150;2023-07-31T10:11:04;1;1;
49064;PMS5003;34876;51.464;-0.150;2023-07-31T10:13:43;1;1;
49064;PMS5003;34876;51.464;-0.150;2023-07-31T10:16:14;1;1;
49064;PMS5003;34876;51.464;-0.150;2023-07-31T10:18:45;5;2;
49064;PMS5003;34876;51.464;-0.150;2023-07-31T10:21:35;0;0;
49064;PMS5003;34876;51.464;-0.150;2023-07-31T10:24:07;0;0;
49064;PMS5003;34876;51.464;-0.150;2023-07-31T10:26:37;0;0;
49064;PMS5003;34876;51.464;-0.150;2023-07-31T10:29:07;1;1;
49064;PMS5003;34876;51.464;-0.150;2023-07-31T10:31:42;1;1;
49064;PMS5003;34876;51.464;-0.150;2023-07-31T10:34:13;0;0;
49064;PMS5003;34876;51.464;-0.150;2023-07-31T10:36:42;2;1;
49064;PMS5003;34876;51.464;-0.150;2023-07-31T10:39:35;2;1;
49064;PMS5003;34876;51.464;-0.150;2023-07-31T10:42:10;1;1;
49064;PMS5003;34876;51.464;-0.150;2023-07-31T10:44:43;1;1;
49064;PMS5003;34876;51.464;-0.150;2023-07-31T10:47:14;0;0;
49064;PMS5003;34876;51.464;-0.150;2023-07-31T10:49:45;1;0;
49064;PMS5003;34876;51.464;-0.150;2023-07-31T10:52:20;0;0;
49064;PMS5003;34876;51.464;-0.150;2023-07-31T10:54:50;1;1;
49064;PMS5003;34876;51.464;-0.150;2023-07-31T10:57:45;0;0;
49064;PMS5003;34876;51.464;-0.150;2023-07-31T11:00:20;0;0;
49064;PMS5003;34876;51.464;-0.150;2023-07-31T11:03:08;0;0;
49064;PMS5003;34876;51.464;-0.150;2023-07-31T11:05:43;0;0;
49064;PMS5003;34876;51.464;-0.150;2023-07-31T11:08:16;0;0;
49064;PMS5003;34876;51.464;-0.150;2023-07-31T11:10:48;0;0;
49064;PMS5003;34876;51.464;-0.150;2023-07-31T11:13:19;1;0;
49064;PMS5003;34876;51.464;-0.150;2023-07-31T11:15:49;2;0;
49064;PMS5003;34876;51.464;-0.150;2023-07-31T11:18:20;0;0;
49064;PMS5003;34876;51.464;-0.150;2023-07-31T11:20:49;1;1;
49064;PMS5003;34876;51.464;-0.150;2023-07-31T11:23:21;0;0;
49064;PMS5003;34876;51.464;-0.150;2023-07-31T11:25:51;0;0;
49064;PMS5003;34876;51.464;-0.150;2023-07-31T11:28:20;0;0;
49064;PMS5003;34876;51.464;-0.150;2023-07-31T11:30:50;1;1;
49064;PMS5003;34876;51.464;-0.150;2023-07-31T11:33:20;0;0;
49064;PMS5003;34876;51.464;-0.150;2023-07-31T11:35:50;0;0;
49064;PMS5003;34876;51.464;-0.150;2023-07-31T11:38:26;0;0;
49064;PMS5003;34876;51.464;-0.150;2023-07-31T11:40:58;0;0;
49064;PMS5003;34876;51.464;-0.150;2023-07-31T11:43:30;0;0;
49064;PMS5003;34876;51.464;-0.150;2023-07-31T11:46:01;0;0;
49064;PMS5003;34876;51.464;-0.150;2023-07-31T11:48:32;0;0;
49064;PMS5003;34876;51.464;-0.150;2023-07-31T11:51:03;0;0;
49064;PMS5003;34876;51.464;-0.150;2023-07-31T11:53:38;0;0;
49064;PMS5003;34876;51.464;-0.150;2023-07-31T11:56:13;0;0;
49064;PMS5003;34876;51.464;-0.150;2023-07-31T11:58:46;0;0;
49064;PMS5003;34876;51.464;-0.150;2023-07-31T12:01:18;0;0;
49064;PMS5003;34876;51.464;-0.150;2023-07-31T12:03:55;0;0;
49064;PMS5003;34876;51.464;-0.150;2023-07-31T12:06:32;1;1;
49064;PMS5003;34876;51.464;-0.150;2023-07-31T12:09:03;1;1;
49064;PMS5003;34876;51.464;-0.150;2023-07-31T12:11:42;2;1;
49064;PMS5003;34876;51.464;-0.150;2023-07-31T12:14:21;1;1;
49064;PMS5003;34876;51.464;-0.150;2023-07-31T12:16:53;0;0;
49064;PMS5003;34876;51.464;-0.150;2023-07-31T12:19:22;3;0;
49064;PMS5003;34876;51.464;-0.150;2023-07-31T12:21:54;1;1;
49064;PMS5003;34876;51.464;-0.150;2023-07-31T12:24:25;0;0;
49064;PMS5003;34876;51.464;-0.150;2023-07-31T12:26:54;0;0;
49064;PMS5003;34876;51.464;-0.150;2023-07-31T12:29:33;1;1;
49064;PMS5003;34876;51.464;-0.150;2023-07-31T12:32:02;0;0;
49064;PMS5003;34876;51.464;-0.150;2023-07-31T12:34:35;0;0;
49064;PMS5003;34876;51.464;-0.150;2023-07-31T12:37:11;1;0;
49064;PMS5003;34876;51.464;-0.150;2023-07-31T12:39:40;0;0;
49064;PMS5003;34876;51.464;-0.150;2023-07-31T12:42:10;1;0;
49064;PMS5003;34876;51.464;-0.150;2023-07-31T12:44:41;0;0;
49064;PMS5003;34876;51.464;-0.150;2023-07-31T12:47:10;0;0;
49064;PMS5003;34876;51.464;-0.150;2023-07-31T12:49:40;1;1;
49064;PMS5003;34876;51.464;-0.150;2023-07-31T12:52:09;1;1;
49064;PMS5003;34876;51.464;-0.150;2023-07-31T12:54:52;0;0;
49064;PMS5003;34876;51.464;-0.150;2023-07-31T12:57:20;0;0;
49064;PMS5003;34876;51.464;-0.150;2023-07-31T12:59:51;0;0;
49064;PMS5003;34876;51.464;-0.150;2023-07-31T13:02:23;0;0;
49064;PMS5003;34876;51.464;-0.150;2023-07-31T13:04:52;0;0;
49064;PMS5003;34876;51.464;-0.150;2023-07-31T13:07:31;0;0;
49064;PMS5003;34876;51.464;-0.150;2023-07-31T13:10:07;0;0;
49064;PMS5003;34876;51.464;-0.150;2023-07-31T13:12:47;0;0;
49064;PMS5003;34876;51.464;-0.150;2023-07-31T13:15:18;1;0;
49064;PMS5003;34876;51.464;-0.150;2023-07-31T13:17:52;0;0;
49064;PMS5003;34876;51.464;-0.150;2023-07-31T13:20:22;1;0;
49064;PMS5003;34876;51.464;-0.150;2023-07-31T13:22:51;0;0;
49064;PMS5003;34876;51.464;-0.150;2023-07-31T13:25:22;1;1;
49064;PMS5003;34876;51.464;-0.150;2023-07-31T13:27:52;0;0;
49064;PMS5003;34876;51.464;-0.150;2023-07-31T13:30:23;2;1;
49064;PMS5003;34876;51.464;-0.150;2023-07-31T13:32:51;0;0;
49064;PMS5003;34876;51.464;-0.150;2023-07-31T13:35:25;0;0;
49064;PMS5003;34876;51.464;-0.150;2023-07-31T13:37:54;0;0;
49064;PMS5003;34876;51.464;-0.150;2023-07-31T13:40:28;0;0;
49064;PMS5003;34876;51.464;-0.150;2023-07-31T13:43:02;0;0;
49064;PMS5003;34876;51.464;-0.150;2023-07-31T13:45:49;0;0;
49064;PMS5003;34876;51.464;-0.150;2023-07-31T13:48:21;1;1;
49064;PMS5003;34876;51.464;-0.150;2023-07-31T13:50:51;0;0;
49064;PMS5003;34876;51.464;-0.150;2023-07-31T13:53:23;0;0;
49064;PMS5003;34876;51.464;-0.150;2023-07-31T13:55:51;1;0;
49064;PMS5003;34876;51.464;-0.150;2023-07-31T13:58:20;0;0;
49064;PMS5003;34876;51.464;-0.150;2023-07-31T14:00:49;0;0;
49064;PMS5003;34876;51.464;-0.150;2023-07-31T14:03:19;1;1;
49064;PMS5003;34876;51.464;-0.150;2023-07-31T14:05:52;1;1;
49064;PMS5003;34876;51.464;-0.150;2023-07-31T14:08:21;1;1;
49064;PMS5003;34876;51.464;-0.150;2023-07-31T14:10:51;0;0;
49064;PMS5003;34876;51.464;-0.150;2023-07-31T14:13:19;2;1;
49064;PMS5003;34876;51.464;-0.150;2023-07-31T14:15:50;0;0;
49064;PMS5003;34876;51.464;-0.150;2023-07-31T14:18:20;0;0;
49064;PMS5003;34876;51.464;-0.150;2023-07-31T14:20:51;0;0;
49064;PMS5003;34876;51.464;-0.150;2023-07-31T14:23:40;0;0;
49064;PMS5003;34876;51.464;-0.150;2023-07-31T14:26:32;0;0;
49064;PMS5003;34876;51.464;-0.150;2023-07-31T14:29:01;0;0;
49064;PMS5003;34876;51.464;-0.150;2023-07-31T14:31:31;0;0;
49064;PMS5003;34876;51.464;-0.150;2023-07-31T14:34:02;0;0;
49064;PMS5003;34876;51.464;-0.150;2023-07-31T14:36:32;0;0;
49064;PMS5003;34876;51.464;-0.150;2023-07-31T14:39:07;0;0;
49064;PMS5003;34876;51.464;-0.150;2023-07-31T14:41:37;0;0;
49064;PMS5003;34876;51.464;-0.150;2023-07-31T14:44:09;0;0;
49064;PMS5003;34876;51.464;-0.150;2023-07-31T14:46:39;0;0;
49064;PMS5003;34876;51.464;-0.150;2023-07-31T14:49:08;1;1;
49064;PMS5003;34876;51.464;-0.150;2023-07-31T14:51:37;0;0;
49064;PMS5003;34876;51.464;-0.150;2023-07-31T14:54:07;0;0;
49064;PMS5003;34876;51.464;-0.150;2023-07-31T14:56:36;0;0;
49064;PMS5003;34876;51.464;-0.150;2023-07-31T14:59:05;0;0;
49064;PMS5003;34876;51.464;-0.150;2023-07-31T15:01:34;0;0;
49064;PMS5003;34876;51.464;-0.150;2023-07-31T15:04:04;0;0;
49064;PMS5003;34876;51.464;-0.150;2023-07-31T15:06:32;0;0;
49064;PMS5003;34876;51.464;-0.150;2023-07-31T15:09:03;0;0;
49064;PMS5003;34876;51.464;-0.150;2023-07-31T15:11:32;0;0;
49064;PMS5003;34876;51.464;-0.150;2023-07-31T15:14:03;0;0;
49064;PMS5003;34876;51.464;-0.150;2023-07-31T15:16:39;0;0;
49064;PMS5003;34876;51.464;-0.150;2023-07-31T15:19:08;0;0;
49064;PMS5003;34876;51.464;-0.150;2023-07-31T15:21:37;0;0;
49064;PMS5003;34876;51.464;-0.150;2023-07-31T15:24:07;0;0;
49064;PMS5003;34876;51.464;-0.150;2023-07-31T15:26:37;0;0;
49064;PMS5003;34876;51.464;-0.150;2023-07-31T15:29:06;0;0;
49064;PMS5003;34876;51.464;-0.150;2023-07-31T15:31:35;0;0;
49064;PMS5003;34876;51.464;-0.150;2023-07-31T15:34:04;0;0;
49064;PMS5003;34876;51.464;-0.150;2023-07-31T15:36:33;0;0;
49064;PMS5003;34876;51.464;-0.150;2023-07-31T15:39:03;1;0;
49064;PMS5003;34876;51.464;-0.150;2023-07-31T15:41:34;0;0;
49064;PMS5003;34876;51.464;-0.150;2023-07-31T15:44:04;0;0;
49064;PMS5003;34876;51.464;-0.150;2023-07-31T15:46:35;0;0;
49064;PMS5003;34876;51.464;-0.150;2023-07-31T15:49:05;0;0;
49064;PMS5003;34876;51.464;-0.150;2023-07-31T15:51:34;1;1;
49064;PMS5003;34876;51.464;-0.150;2023-07-31T15:54:07;0;0;
49064;PMS5003;34876;51.464;-0.150;2023-07-31T15:56:44;1;1;
49064;PMS5003;34876;51.464;-0.150;2023-07-31T15:59:20;0;0;
49064;PMS5003;34876;51.464;-0.150;2023-07-31T16:01:49;0;0;
49064;PMS5003;34876;51.464;-0.150;2023-07-31T16:04:21;0;0;
49064;PMS5003;34876;51.464;-0.150;2023-07-31T16:06:50;0;0;
49064;PMS5003;34876;51.464;-0.150;2023-07-31T16:09:21;0;0;
49064;PMS5003;34876;51.464;-0.150;2023-07-31T16:11:57;0;0;
49064;PMS5003;34876;51.464;-0.150;2023-07-31T16:14:30;1;1;
49064;PMS5003;34876;51.464;-0.150;2023-07-31T16:17:26;1;1;
49064;PMS5003;34876;51.464;-0.150;2023-07-31T16:19:58;0;0;
49064;PMS5003;34876;51.464;-0.150;2023-07-31T16:22:32;0;0;
49064;PMS5003;34876;51.464;-0.150;2023-07-31T16:25:11;2;1;
49064;PMS5003;34876;51.464;-0.150;2023-07-31T16:27:40;0;0;
49064;PMS5003;34876;51.464;-0.150;2023-07-31T16:30:10;0;0;
49064;PMS5003;34876;51.464;-0.150;2023-07-31T16:32:42;0;0;
49064;PMS5003;34876;51.464;-0.150;2023-07-31T16:35:26;0;0;
49064;PMS5003;34876;51.464;-0.150;2023-07-31T16:37:55;0;0;
49064;PMS5003;34876;51.464;-0.150;2023-07-31T16:40:25;0;0;
49064;PMS5003;34876;51.464;-0.150;2023-07-31T16:42:57;0;0;
49064;PMS5003;34876;51.464;-0.150;2023-07-31T16:45:32;1;1;
49064;PMS5003;34876;51.464;-0.150;2023-07-31T16:48:02;0;0;
49064;PMS5003;34876;51.464;-0.150;2023-07-31T16:50:35;0;0;
49064;PMS5003;34876;51.464;-0.150;2023-07-31T16:53:06;0;0;
49064;PMS5003;34876;51.464;-0.150;2023-07-31T16:55:41;0;0;
49064;PMS5003;34876;51.464;-0.150;2023-07-31T16:58:11;1;1;
49064;PMS5003;34876;51.464;-0.150;2023-07-31T17:00:40;0;0;
49064;PMS5003;34876;51.464;-0.150;2023-07-31T17:03:16;1;1;